Time;durP1;ratioP1;P1;durP2;ratioP2;P2;SDS_P1;SDS_P2;PMS_P1;PMS_P2;Temp;Humidity;BMP_temperature;BMP_pressure;BME280_temperature;BME280_humidity;BME280_pressure;Samples;Min_cycle;Max_cycle;Signal;HPM_P1;HPM_P2
2022/04/29 00:01:26;;;;;;;;;;;;;;;14.86;90.20;98983.38;5077220;28;20005;-60
2022/04/29 00:03:53;;;;;;;;;;;;;;;14.83;90.87;98993.88;5075736;27;19988;-60
2022/04/29 00:06:20;;;;;;;;;;;;;;;14.74;91.85;98984.69;5076379;28;19971;-60
2022/04/29 00:08:46;;;;;;;;;;;;;;;14.65;92.73;98987.09;5078870;28;19920;-58
2022/04/29 00:11:12;;;;;;;;;;;;;;;14.70;92.28;98986.31;5079099;28;20006;-60
2022/04/29 00:13:40;;;;;;;;;;;;;;;14.67;92.72;98984.94;5096282;27;19935;-60
2022/04/29 00:16:06;;;;;;;;;;;;;;;14.70;92.56;98987.09;5075466;28;19936;-60
2022/04/29 00:18:33;;;;;;;;;;;;;;;14.70;92.50;98984.41;5077810;28;20024;-59
2022/04/29 00:21:00;;;;;;;;;;;;;;;14.66;92.45;98980.66;5078963;28;19951;-60
2022/04/29 00:23:26;;;;;;;;;;;;;;;14.58;93.24;98983.81;5076270;28;20331;-59
2022/04/29 00:25:52;;;;;;;;;;;;;;;14.56;93.03;98978.72;5075298;28;19935;-58
2022/04/29 00:28:18;;;;;;;;;;;;;;;14.63;92.48;98981.16;5076046;28;19925;-60
2022/04/29 00:30:46;;;;;;;;;;;;;;;14.62;92.39;98971.47;5078925;28;19970;-60
2022/04/29 00:33:12;;;;;;;;;;;;;;;14.61;91.86;98972.53;5078829;28;20019;-59
2022/04/29 00:35:39;;;;;;;;;;;;;;;14.57;91.79;98966.91;5075113;28;19996;-59
2022/04/29 00:38:05;;;;;;;;;;;;;;;14.53;91.42;98967.69;5075107;28;19993;-60
2022/04/29 00:40:32;;;;;;;;;;;;;;;14.55;90.77;98969.03;5077635;28;19976;-59
2022/04/29 00:42:58;;;;;;;;;;;;;;;14.57;90.54;98966.09;5099247;27;20037;-59
2022/04/29 00:45:25;;;;;;;;;;;;;;;14.58;90.15;98962.31;5077042;28;19928;-59
2022/04/29 00:47:53;;;;;;;;;;;;;;;14.56;89.88;98973.34;5075541;28;19964;-59
2022/04/29 00:50:21;;;;;;;;;;;;;;;14.53;89.94;98973.88;5076055;28;19956;-58
2022/04/29 00:52:48;;;;;;;;;;;;;;;14.47;89.82;98966.03;5078741;28;19984;-59
2022/04/29 00:55:15;;;;;;;;;;;;;;;14.50;89.85;98960.13;5078443;28;19935;-58
2022/04/29 00:57:44;;;;;;;;;;;;;;;14.49;89.84;98958.50;5074860;28;19964;-58
2022/04/29 01:00:11;;;;;;;;;;;;;;;14.31;90.10;98956.25;5075123;28;19948;-59
2022/04/29 01:02:39;;;;;;;;;;;;;;;14.20;91.90;98952.72;5077885;28;19984;-60
2022/04/29 01:05:08;;;;;;;;;;;;;;;14.15;92.59;98957.25;5078429;28;19929;-58
2022/04/29 01:07:35;;;;;;;;;;;;;;;13.76;94.14;98957.53;5075675;28;20000;-59
2022/04/29 01:10:02;;;;;;;;;;;;;;;13.50;96.83;98961.09;5074935;28;20031;-60
2022/04/29 01:12:29;;;;;;;;;;;;;;;13.51;96.92;98954.66;5097394;27;19998;-59
2022/04/29 01:14:56;;;;;;;;;;;;;;;13.83;95.45;98955.44;5078316;28;20003;-59
2022/04/29 01:17:22;;;;;;;;;;;;;;;14.00;94.01;98955.28;5077112;28;19993;-59
2022/04/29 01:19:49;;;;;;;;;;;;;;;14.09;93.10;98948.34;5074815;28;19954;-59
2022/04/29 01:22:16;;;;;;;;;;;;;;;14.11;92.42;98950.78;5074832;28;20011;-58
2022/04/29 01:24:44;;;;;;;;;;;;;;;14.11;92.14;98945.41;5077978;28;19924;-59
2022/04/29 01:27:11;;;;;;;;;;;;;;;14.06;92.34;98946.19;5078088;28;19920;-61
2022/04/29 01:29:38;;;;;;;;;;;;;;;14.05;92.23;98944.56;5074840;28;19925;-59
2022/04/29 01:32:04;;;;;;;;;;;;;;;14.10;91.88;98944.59;5074685;28;20041;-60
2022/04/29 01:34:31;;;;;;;;;;;;;;;14.12;91.49;98947.00;5076723;28;20011;-60
2022/04/29 01:36:57;;;;;;;;;;;;;;;14.09;91.33;98948.34;5081641;28;19928;-60
2022/04/29 01:39:25;;;;;;;;;;;;;;;14.10;91.41;98949.16;5079997;28;19980;-60
2022/04/29 01:41:51;;;;;;;;;;;;;;;14.03;91.38;98947.50;5077876;27;19921;-59
2022/04/29 01:44:18;;;;;;;;;;;;;;;14.00;91.35;98947.22;5077827;28;19924;-59
2022/04/29 01:46:44;;;;;;;;;;;;;;;13.99;91.50;98949.09;5077826;28;19928;-60
2022/04/29 01:49:10;;;;;;;;;;;;;;;13.99;91.50;98948.28;5077881;28;19925;-59
2022/04/29 01:51:37;;;;;;;;;;;;;;;13.94;91.75;98941.03;5080637;28;19931;-59
2022/04/29 01:54:09;;;;;;;;;;;;;;;14.00;91.51;98949.91;5081101;28;19935;-59
2022/04/29 01:56:37;;;;;;;;;;;;;;;13.99;91.50;98949.09;5078329;28;19955;-60
2022/04/29 01:59:04;;;;;;;;;;;;;;;13.99;91.47;98954.47;5077645;28;19984;-58
2022/04/29 02:01:31;;;;;;;;;;;;;;;13.94;91.50;98951.75;5079607;27;19928;-59
2022/04/29 02:03:58;;;;;;;;;;;;;;;13.93;91.51;98947.44;5081100;28;20045;-59
2022/04/29 02:06:25;;;;;;;;;;;;;;;13.93;91.72;98936.69;5079440;28;19968;-59
2022/04/29 02:08:51;;;;;;;;;;;;;;;13.94;91.66;98940.19;5055269;28;19936;-58
2022/04/29 02:11:18;;;;;;;;;;;;;;;13.82;92.02;98935.03;5073880;28;20016;-59
2022/04/29 02:13:46;;;;;;;;;;;;;;;13.89;91.94;98932.13;5101877;27;19929;-59
2022/04/29 02:16:13;;;;;;;;;;;;;;;13.86;92.04;98920.03;5077317;28;19925;-60
2022/04/29 02:18:39;;;;;;;;;;;;;;;13.85;91.86;98926.47;5080707;28;19987;-58
2022/04/29 02:21:06;;;;;;;;;;;;;;;13.87;92.00;98932.38;5080855;28;20015;-59
2022/04/29 02:23:32;;;;;;;;;;;;;;;13.82;92.33;98921.59;5077966;28;19925;-59
2022/04/29 02:25:59;;;;;;;;;;;;;;;13.81;92.47;98928.03;5077315;28;20016;-59
2022/04/29 02:28:27;;;;;;;;;;;;;;;13.79;92.42;98926.69;5078550;28;20216;-59
2022/04/29 02:30:55;;;;;;;;;;;;;;;13.76;92.64;98922.66;5080621;28;19983;-59
2022/04/29 02:33:21;;;;;;;;;;;;;;;13.79;92.47;98922.13;5079754;28;19925;-58
2022/04/29 02:35:47;;;;;;;;;;;;;;;13.78;92.60;98919.69;5077164;28;19931;-60
2022/04/29 02:38:14;;;;;;;;;;;;;;;13.81;92.39;98919.16;5077106;28;20074;-59
2022/04/29 02:40:40;;;;;;;;;;;;;;;13.78;92.38;98923.19;5068775;28;19928;-60
2022/04/29 02:43:07;;;;;;;;;;;;;;;13.78;92.43;98923.19;5072881;27;19929;-59
2022/04/29 02:45:33;;;;;;;;;;;;;;;13.67;92.85;98913.47;5078949;28;19925;-59
2022/04/29 02:48:01;;;;;;;;;;;;;;;13.64;92.99;98923.91;5080322;28;19984;-60
2022/04/29 02:50:27;;;;;;;;;;;;;;;13.66;93.08;98919.88;5078602;28;19971;-60
2022/04/29 02:52:54;;;;;;;;;;;;;;;13.66;93.28;98921.75;5077211;28;19988;-60
2022/04/29 02:55:20;;;;;;;;;;;;;;;13.65;93.51;98926.31;5077756;28;19989;-60
2022/04/29 02:57:47;;;;;;;;;;;;;;;13.60;93.66;98923.59;5080385;28;20018;-61
2022/04/29 03:00:13;;;;;;;;;;;;;;;13.61;93.51;98922.53;5080326;28;19974;-59
2022/04/29 03:02:40;;;;;;;;;;;;;;;13.63;93.51;98922.28;5068194;28;19935;-60
2022/04/29 03:05:08;;;;;;;;;;;;;;;13.64;93.22;98921.22;5076869;28;19992;-59
2022/04/29 03:07:34;;;;;;;;;;;;;;;13.61;93.33;98924.41;5079322;28;20497;-59
2022/04/29 03:10:01;;;;;;;;;;;;;;;13.57;93.51;98918.75;5080132;28;19966;-60
2022/04/29 03:12:27;;;;;;;;;;;;;;;13.36;94.88;98925.03;5096889;27;19948;-59
2022/04/29 03:15:15;;;;;;;;;;;;;;;13.39;94.88;98927.19;5080072;28;19991;-60
2022/04/29 03:20:26;;;;;;;;;;;;;;;13.43;94.17;98909.53;5077702;28;19931;-59
2022/04/29 03:22:52;;;;;;;;;;;;;;;13.44;94.14;98911.13;5079852;28;19984;-59
2022/04/29 03:25:18;;;;;;;;;;;;;;;13.36;94.36;98901.69;5079335;28;19929;-61
2022/04/29 03:27:45;;;;;;;;;;;;;;;13.33;94.16;98906.75;5076569;28;19996;-60
2022/04/29 03:30:12;;;;;;;;;;;;;;;13.06;96.31;98905.97;5076494;28;19920;-59
2022/04/29 03:32:38;;;;;;;;;;;;;;;12.84;97.82;98896.09;5079538;28;19960;-60
2022/04/29 03:35:05;;;;;;;;;;;;;;;13.03;97.43;98895.75;5080006;28;19929;-62
2022/04/29 03:37:33;;;;;;;;;;;;;;;13.10;96.71;98896.34;5077296;28;19921;-63
2022/04/29 03:39:59;;;;;;;;;;;;;;;13.16;96.34;98900.69;5076449;28;19924;-60
2022/04/29 03:42:25;;;;;;;;;;;;;;;13.14;95.88;98902.84;5076042;27;19988;-60
2022/04/29 03:44:51;;;;;;;;;;;;;;;13.18;95.93;98898.59;5058550;28;19980;-59
2022/04/29 03:47:18;;;;;;;;;;;;;;;13.15;95.63;98901.78;5076781;28;19997;-59
2022/04/29 03:49:44;;;;;;;;;;;;;;;13.18;95.51;98902.09;5079697;28;19983;-59
2022/04/29 03:52:10;;;;;;;;;;;;;;;13.01;94.99;98898.66;5079728;28;19931;-60
2022/04/29 03:54:38;;;;;;;;;;;;;;;13.00;96.02;98897.84;5076375;28;19920;-59
2022/04/29 03:57:05;;;;;;;;;;;;;;;13.07;95.90;98907.56;5075731;28;19971;-59
2022/04/29 03:59:31;;;;;;;;;;;;;;;12.94;95.71;98912.28;5077822;28;19921;-60
2022/04/29 04:01:57;;;;;;;;;;;;;;;12.79;96.86;98912.13;5079204;28;19925;-58
2022/04/29 04:04:23;;;;;;;;;;;;;;;12.74;98.44;98906.72;5078019;28;19925;-60
2022/04/29 04:06:53;;;;;;;;;;;;;;;12.83;97.66;98915.13;5075980;28;19984;-60
2022/04/29 04:09:23;;;;;;;;;;;;;;;12.85;97.00;98905.75;5076432;28;19958;-59
2022/04/29 04:11:50;;;;;;;;;;;;;;;12.71;97.12;98914.47;5081071;27;19924;-60
2022/04/29 04:14:18;;;;;;;;;;;;;;;12.77;97.63;98916.13;5092703;27;19992;-59
2022/04/29 04:16:44;;;;;;;;;;;;;;;12.84;97.27;98919.44;5079133;28;19941;-59
2022/04/29 04:19:11;;;;;;;;;;;;;;;12.94;96.06;98914.16;5079093;28;19925;-59
2022/04/29 04:21:37;;;;;;;;;;;;;;;13.02;95.26;98912.88;5075880;28;19963;-59
2022/04/29 04:24:04;;;;;;;;;;;;;;;13.00;94.76;98923.84;5075638;28;19925;-60
2022/04/29 04:26:30;;;;;;;;;;;;;;;12.90;95.10;98919.19;5077776;28;19925;-59
2022/04/29 04:28:58;;;;;;;;;;;;;;;12.79;95.63;98932.75;5079027;28;19925;-60
2022/04/29 04:31:24;;;;;;;;;;;;;;;12.74;97.12;98927.34;5077557;28;20007;-60
2022/04/29 04:33:51;;;;;;;;;;;;;;;12.50;97.68;98923.34;5075434;28;19925;-58
2022/04/29 04:36:17;;;;;;;;;;;;;;;12.23;100.00;98933.97;5075645;28;20300;-60
2022/04/29 04:38:44;;;;;;;;;;;;;;;12.37;100.00;98935.25;5078686;28;20000;-58
2022/04/29 04:41:13;;;;;;;;;;;;;;;12.58;99.28;98942.47;5078885;28;19934;-59
2022/04/29 04:43:39;;;;;;;;;;;;;;;12.75;97.34;98943.19;5070244;27;19936;-59
2022/04/29 04:46:07;;;;;;;;;;;;;;;12.87;96.14;98946.53;5078716;28;19921;-60
2022/04/29 04:48:33;;;;;;;;;;;;;;;12.92;95.39;98943.91;5076026;28;19924;-58
2022/04/29 04:51:01;;;;;;;;;;;;;;;12.92;95.41;98951.94;5075321;28;19955;-59
2022/04/29 04:53:28;;;;;;;;;;;;;;;12.86;94.96;98942.25;5076693;28;19946;-59
2022/04/29 04:55:54;;;;;;;;;;;;;;;12.36;97.51;98944.31;5078613;28;19992;-60
2022/04/29 04:58:20;;;;;;;;;;;;;;;12.01;100.00;98946.56;5077717;28;19924;-60
2022/04/29 05:00:47;;;;;;;;;;;;;;;11.80;100.00;98945.44;5075258;28;19925;-60
2022/04/29 05:03:14;;;;;;;;;;;;;;;12.06;100.00;98951.97;5074788;28;19925;-59
2022/04/29 05:05:41;;;;;;;;;;;;;;;12.36;100.00;98944.31;5066795;28;19960;-60
2022/04/29 05:08:07;;;;;;;;;;;;;;;12.48;99.67;98947.69;5074900;28;19929;-59
2022/04/29 05:10:34;;;;;;;;;;;;;;;12.58;98.58;98947.81;5080825;28;19925;-59
2022/04/29 05:13:00;;;;;;;;;;;;;;;12.53;98.86;98950.44;5103319;27;19963;-59
2022/04/29 05:15:26;;;;;;;;;;;;;;;12.53;98.68;98955.81;5080218;28;19927;-59
2022/04/29 05:17:52;;;;;;;;;;;;;;;12.64;97.78;98952.19;5078459;28;19925;-59
2022/04/29 05:20:20;;;;;;;;;;;;;;;12.65;97.35;98953.81;5078638;28;19996;-60
2022/04/29 05:22:47;;;;;;;;;;;;;;;12.74;96.84;98954.97;5081620;28;19988;-59
2022/04/29 05:25:14;;;;;;;;;;;;;;;12.69;97.00;98954.91;5081655;28;19933;-59
2022/04/29 05:27:40;;;;;;;;;;;;;;;12.68;96.89;98964.03;5078061;28;19935;-59
2022/04/29 05:30:08;;;;;;;;;;;;;;;12.25;98.97;98962.16;5078172;28;20527;-61
2022/04/29 05:32:34;;;;;;;;;;;;;;;12.01;100.00;98967.97;5080795;28;20011;-60
2022/04/29 05:35:01;;;;;;;;;;;;;;;11.69;100.00;98965.06;5081743;28;19967;-59
2022/04/29 05:37:28;;;;;;;;;;;;;;;11.67;100.00;98978.66;5079639;28;19960;-60
2022/04/29 05:42:50;;;;;;;;;;;;;;;12.17;100.00;98975.97;5114931;28;19924;-59
2022/04/29 05:45:17;;;;;;;;;;;;;;;12.57;100.00;98975.66;5088031;27;19946;-59
2022/04/29 05:47:43;;;;;;;;;;;;;;;12.49;100.00;98973.44;5081302;28;19925;-60
2022/04/29 05:50:09;;;;;;;;;;;;;;;12.31;100.00;98973.75;5081340;28;19963;-59
2022/04/29 05:52:37;;;;;;;;;;;;;;;12.30;100.00;98977.47;5060580;28;19956;-59
2022/04/29 05:55:04;;;;;;;;;;;;;;;12.24;100.00;98973.09;5077797;28;20019;-59
2022/04/29 05:57:30;;;;;;;;;;;;;;;12.82;99.59;98970.59;5079397;28;20412;-62
2022/04/29 05:59:58;;;;;;;;;;;;;;;12.85;99.01;98971.97;5081000;28;20061;-58
2022/04/29 06:02:25;;;;;;;;;;;;;;;13.23;96.24;98963.00;5079303;27;19924;-62
2022/04/29 06:04:51;;;;;;;;;;;;;;;13.32;96.15;98964.16;5077574;28;19931;-60
2022/04/29 06:07:17;;;;;;;;;;;;;;;13.25;96.81;98960.88;5077814;28;19925;-60
2022/04/29 06:09:45;;;;;;;;;;;;;;;13.71;94.34;98962.06;5080737;28;19956;-60
2022/04/29 06:12:12;;;;;;;;;;;;;;;14.05;92.10;98952.63;5096100;27;19923;-60
2022/04/29 06:14:41;;;;;;;;;;;;;;;14.03;91.17;98962.81;5063474;28;19980;-60
2022/04/29 06:17:07;;;;;;;;;;;;;;;14.07;92.12;98963.94;5080895;28;19924;-60
2022/04/29 06:19:33;;;;;;;;;;;;;;;14.26;91.60;98969.69;5078263;28;19925;-59
2022/04/29 06:22:00;;;;;;;;;;;;;;;14.55;89.64;98957.47;5076689;28;19992;-59
2022/04/29 06:24:26;;;;;;;;;;;;;;;14.67;88.72;98962.63;5078711;28;19925;-60
2022/04/29 06:26:54;;;;;;;;;;;;;;;14.69;89.21;98961.28;5080866;28;19984;-60
2022/04/29 06:29:20;;;;;;;;;;;;;;;14.94;87.71;98964.06;5080073;28;20590;-60
2022/04/29 06:31:46;;;;;;;;;;;;;;;15.07;87.06;98965.44;5077024;28;19963;-59
2022/04/29 06:34:13;;;;;;;;;;;;;;;15.18;86.82;98966.25;5077189;28;19925;-59
2022/04/29 06:36:39;;;;;;;;;;;;;;;15.35;86.04;98974.91;5080566;28;19995;-60
2022/04/29 06:39:05;;;;;;;;;;;;;;;15.44;85.46;98975.97;5063387;28;19963;-60
2022/04/29 06:41:31;;;;;;;;;;;;;;;15.56;84.84;98977.38;5078350;28;20007;-60
2022/04/29 06:43:59;;;;;;;;;;;;;;;15.46;85.50;98968.44;5057138;28;19964;-59
2022/04/29 06:46:26;;;;;;;;;;;;;;;15.18;86.64;98968.94;5079011;28;20693;-60
2022/04/29 06:48:54;;;;;;;;;;;;;;;15.34;87.39;98971.41;5077036;28;19925;-61
2022/04/29 06:51:20;;;;;;;;;;;;;;;15.52;86.18;98967.38;5077639;28;19925;-59
2022/04/29 06:53:47;;;;;;;;;;;;;;;15.65;85.57;98969.56;5080295;28;19995;-60
2022/04/29 06:56:14;;;;;;;;;;;;;;;15.75;84.66;98968.75;5062584;28;19924;-61
2022/04/29 06:58:41;;;;;;;;;;;;;;;15.50;82.56;98969.56;5068495;28;19928;-61
2022/04/29 07:01:09;;;;;;;;;;;;;;;15.54;86.00;98970.59;5059027;28;19925;-60
2022/04/29 07:03:36;;;;;;;;;;;;;;;15.70;84.93;98972.22;5079103;27;19928;-60
2022/04/29 07:06:03;;;;;;;;;;;;;;;15.78;83.59;98960.94;5080099;28;19949;-59
2022/04/29 07:08:29;;;;;;;;;;;;;;;15.85;82.87;98966.81;5077829;28;19931;-60
2022/04/29 07:10:56;;;;;;;;;;;;;;;15.77;80.77;98967.38;5076622;28;20013;-60
2022/04/29 07:13:22;;;;;;;;;;;;;;;15.90;82.94;98960.63;5102149;27;20397;-58
2022/04/29 07:15:49;;;;;;;;;;;;;;;15.50;79.07;98966.84;5076866;28;19924;-59
2022/04/29 07:18:17;;;;;;;;;;;;;;;15.29;84.25;98967.91;5076800;28;19960;-59
2022/04/29 07:20:43;;;;;;;;;;;;;;;15.87;81.83;98953.91;5069087;28;19946;-59
2022/04/29 07:23:10;;;;;;;;;;;;;;;15.78;81.22;98960.13;5076677;28;19954;-60
2022/04/29 07:25:36;;;;;;;;;;;;;;;15.42;80.80;98962.78;5079361;28;19929;-59
2022/04/29 07:28:02;;;;;;;;;;;;;;;15.03;82.74;98954.41;5079858;28;19990;-59
2022/04/29 07:30:29;;;;;;;;;;;;;;;14.98;86.46;98950.88;5077889;28;19992;-59
2022/04/29 07:32:55;;;;;;;;;;;;;;;14.90;85.22;98952.22;5074970;28;19953;-60
2022/04/29 07:43:35;;;;;;;;;;;;;;;15.16;86.85;98955.78;5074483;27;19931;-59
2022/04/29 07:46:01;;;;;;;;;;;;;;;15.03;82.94;98950.91;5079618;28;19984;-60
2022/04/29 07:48:28;;;;;;;;;;;;;;;14.74;84.78;98939.78;5077819;28;19983;-60
2022/04/29 07:50:55;;;;;;;;;;;;;;;14.90;86.24;98943.31;5076144;28;19925;-59
2022/04/29 07:53:22;;;;;;;;;;;;;;;14.52;85.76;98942.66;5076857;28;19925;-58
2022/04/29 07:55:48;;;;;;;;;;;;;;;14.56;85.15;98943.78;5079411;28;20018;-59
2022/04/29 07:58:14;;;;;;;;;;;;;;;14.72;84.91;98939.25;5079486;28;19921;-59
2022/04/29 08:00:43;;;;;;;;;;;;;;;14.61;84.23;98945.66;5067653;28;19929;-60
2022/04/29 08:03:09;;;;;;;;;;;;;;;14.59;82.05;98947.81;5075682;28;20132;-60
2022/04/29 08:05:36;;;;;;;;;;;;;;;14.58;83.72;98940.81;5078290;28;19968;-60
2022/04/29 08:08:04;;;;;;;;;;;;;;;14.58;84.90;98935.44;5079050;28;19924;-60
2022/04/29 08:10:31;;;;;;;;;;;;;;;14.80;83.98;98936.03;5077129;28;19988;-61
2022/04/29 08:12:58;;;;;;;;;;;;;;;14.96;83.38;98929.63;5071458;27;19925;-60
2022/04/29 08:15:25;;;;;;;;;;;;;;;14.85;83.17;98930.69;5076740;28;19924;-59
2022/04/29 08:17:51;;;;;;;;;;;;;;;14.82;83.42;98927.72;5079198;28;19925;-60
2022/04/29 08:20:18;;;;;;;;;;;;;;;14.89;83.03;98930.94;5078890;28;19924;-59
2022/04/29 08:22:44;;;;;;;;;;;;;;;15.04;82.41;98931.00;5075733;28;19981;-59
2022/04/29 08:25:12;;;;;;;;;;;;;;;15.09;81.05;98931.00;5075609;28;19985;-60
2022/04/29 08:27:38;;;;;;;;;;;;;;;15.25;80.62;98934.50;5060737;28;19936;-59
2022/04/29 08:30:06;;;;;;;;;;;;;;;15.03;80.43;98926.69;5079014;28;20037;-60
2022/04/29 08:32:37;;;;;;;;;;;;;;;14.80;80.20;98914.53;5076433;28;19932;-59
2022/04/29 08:35:03;;;;;;;;;;;;;;;15.08;82.48;98914.03;5075151;28;19925;-60
2022/04/29 08:37:30;;;;;;;;;;;;;;;15.28;81.32;98912.44;5077281;28;19925;-60
2022/04/29 08:39:56;;;;;;;;;;;;;;;15.28;82.00;98912.44;5078855;28;19924;-60
2022/04/29 08:42:26;;;;;;;;;;;;;;;15.27;81.54;98905.44;5073436;27;19953;-60
2022/04/29 08:44:53;;;;;;;;;;;;;;;15.26;80.90;98907.31;5077610;28;19954;-60
2022/04/29 08:47:20;;;;;;;;;;;;;;;15.26;82.71;98899.25;5079302;28;20016;-60
2022/04/29 08:49:47;;;;;;;;;;;;;;;15.31;81.86;98901.13;5082285;28;19948;-60
2022/04/29 08:52:14;;;;;;;;;;;;;;;15.94;81.90;98894.34;5082349;28;19946;-60
2022/04/29 09:00:13;;;;;;;;;;;;;;;16.18;79.21;98879.19;5082147;28;19931;-59
2022/04/29 09:02:40;;;;;;;;;;;;;;;16.77;77.75;98881.91;5078515;27;19931;-59
2022/04/29 09:05:08;;;;;;;;;;;;;;;16.96;76.27;98882.81;5078872;28;19931;-60
2022/04/29 09:07:49;;;;;;;;;;;;;;;17.16;74.14;98873.78;5081021;28;19931;-60
2022/04/29 09:10:15;;;;;;;;;;;;;;;16.21;68.96;98884.03;5082037;28;19932;-59
2022/04/29 09:12:43;;;;;;;;;;;;;;;16.28;73.89;98883.75;5066007;27;19929;-59
2022/04/29 09:15:11;;;;;;;;;;;;;;;16.19;71.32;98870.81;5078397;28;19925;-59
2022/04/29 09:17:38;;;;;;;;;;;;;;;16.14;74.02;98872.72;5081605;28;19996;-60
2022/04/29 09:20:13;;;;;;;;;;;;;;;16.34;71.49;98864.53;5081825;28;19959;-59
2022/04/29 09:22:40;;;;;;;;;;;;;;;16.81;73.55;98865.94;5078592;28;19924;-58
2022/04/29 09:25:07;;;;;;;;;;;;;;;16.37;65.50;98874.78;5078272;28;19925;-60
2022/04/29 09:27:52;;;;;;;;;;;;;;;16.32;65.33;98863.22;5080771;28;19984;-59
2022/04/29 09:30:31;;;;;;;;;;;;;;;16.67;68.62;98861.19;5081098;28;19992;-60
2022/04/29 09:32:57;;;;;;;;;;;;;;;16.93;64.57;98861.81;5078199;28;19999;-60
2022/04/29 09:35:34;;;;;;;;;;;;;;;16.75;61.81;98857.06;5078924;28;20376;-60
2022/04/29 09:40:46;;;;;;;;;;;;;;;16.94;64.64;98860.72;5070471;28;19924;-59
2022/04/29 09:43:13;;;;;;;;;;;;;;;17.03;63.14;98848.25;5073419;27;19929;-60
2022/04/29 09:45:40;;;;;;;;;;;;;;;17.07;62.72;98838.50;5081049;28;19925;-60
2022/04/29 09:48:09;;;;;;;;;;;;;;;17.52;63.26;98839.97;5081467;28;19992;-60
2022/04/29 09:50:45;;;;;;;;;;;;;;;17.90;62.19;98834.75;5078621;28;19967;-59
2022/04/29 09:53:20;;;;;;;;;;;;;;;17.91;59.06;98837.16;5077990;28;19924;-60
2022/04/29 09:56:05;;;;;;;;;;;;;;;17.80;59.37;98839.16;5069393;28;20655;-60
2022/04/29 09:58:32;;;;;;;;;;;;;;;17.64;54.84;98836.94;5079971;28;19960;-60
2022/04/29 10:01:00;;;;;;;;;;;;;;;17.74;56.93;98824.09;5081468;28;19984;-61
2022/04/29 10:03:26;;;;;;;;;;;;;;;17.65;56.17;98822.31;5079787;27;19931;-60
2022/04/29 10:05:53;;;;;;;;;;;;;;;17.54;51.33;98821.59;5077850;28;19991;-60
2022/04/29 10:08:19;;;;;;;;;;;;;;;17.61;56.78;98815.88;5078239;28;20343;-59
2022/04/29 10:10:46;;;;;;;;;;;;;;;17.74;56.03;98828.69;5081147;28;19987;-60
2022/04/29 10:13:14;;;;;;;;;;;;;;;17.78;53.28;98817.03;5103212;27;19952;-60
2022/04/29 10:15:41;;;;;;;;;;;;;;;17.78;52.32;98813.53;5077820;28;19987;-59
2022/04/29 10:23:39;;;;;;;;;;;;;;;17.53;51.08;98813.78;5080693;28;19928;-60
2022/04/29 10:26:05;;;;;;;;;;;;;;;17.70;51.73;98811.47;5080847;28;19920;-60
2022/04/29 10:28:32;;;;;;;;;;;;;;;18.04;53.79;98809.41;5078323;28;20015;-59
2022/04/29 10:31:02;;;;;;;;;;;;;;;17.87;51.28;98809.09;5077327;28;19963;-60
2022/04/29 10:33:30;;;;;;;;;;;;;;;17.99;52.46;98803.28;5078717;28;19931;-61
2022/04/29 10:35:57;;;;;;;;;;;;;;;18.10;53.00;98813.69;5080904;28;19987;-59
2022/04/29 10:38:24;;;;;;;;;;;;;;;18.23;53.17;98810.25;5079544;28;19931;-61
2022/04/29 10:41:06;;;;;;;;;;;;;;;18.18;53.31;98806.81;5077242;28;19981;-60
2022/04/29 10:43:32;;;;;;;;;;;;;;;18.25;52.27;98805.38;5074394;27;20015;-60
2022/04/29 10:46:14;;;;;;;;;;;;;;;18.08;51.26;98801.53;5080537;28;19924;-60
2022/04/29 10:48:42;;;;;;;;;;;;;;;18.14;51.36;98793.09;5077300;27;19925;-59
2022/04/29 10:51:09;;;;;;;;;;;;;;;18.20;52.00;98804.63;5077214;28;19980;-59
2022/04/29 10:53:37;;;;;;;;;;;;;;;18.06;53.55;98785.63;5079682;28;19985;-62
2022/04/29 10:56:18;;;;;;;;;;;;;;;18.42;54.41;98787.84;5080389;28;20365;-60
2022/04/29 10:58:45;;;;;;;;;;;;;;;18.70;54.55;98778.78;5068346;28;20004;-59
2022/04/29 11:01:24;;;;;;;;;;;;;;;18.71;50.94;98775.81;5077032;28;19925;-60
2022/04/29 11:03:52;;;;;;;;;;;;;;;18.64;49.41;98774.56;5070097;28;19924;-59
2022/04/29 11:06:19;;;;;;;;;;;;;;;18.38;49.86;98770.59;5076995;28;19929;-59
2022/04/29 11:08:46;;;;;;;;;;;;;;;18.28;48.92;98769.66;5080117;28;19920;-59
2022/04/29 11:11:13;;;;;;;;;;;;;;;18.07;49.24;98762.88;5080425;28;19987;-61
2022/04/29 11:13:44;;;;;;;;;;;;;;;18.30;50.91;98767.44;5094077;27;21277;-62
2022/04/29 11:16:11;;;;;;;;;;;;;;;18.50;49.94;98766.41;5076814;28;19952;-59
2022/04/29 11:18:38;;;;;;;;;;;;;;;18.57;51.96;98760.63;5079511;28;19925;-60
2022/04/29 11:26:42;;;;;;;;;;;;;;;18.64;48.59;98747.50;5079167;28;19953;-60
2022/04/29 11:29:10;;;;;;;;;;;;;;;18.66;48.39;98751.50;5079911;28;19925;-60
2022/04/29 11:31:37;;;;;;;;;;;;;;;18.78;48.58;98745.66;5077064;28;19928;-60
2022/04/29 11:34:07;;;;;;;;;;;;;;;18.79;49.09;98744.53;5076373;28;19988;-59
2022/04/29 11:36:35;;;;;;;;;;;;;;;18.70;48.91;98749.03;5078844;28;19988;-61
2022/04/29 11:39:03;;;;;;;;;;;;;;;18.82;48.63;98746.66;5080006;28;19985;-59
2022/04/29 11:41:29;;;;;;;;;;;;;;;18.85;48.57;98737.94;5077956;28;19925;-60
2022/04/29 11:43:55;;;;;;;;;;;;;;;18.86;50.48;98734.16;5073520;27;19932;-59
2022/04/29 11:46:22;;;;;;;;;;;;;;;18.98;48.41;98729.06;5078894;28;19992;-60
2022/04/29 11:48:52;;;;;;;;;;;;;;;18.85;49.13;98721.72;5076258;28;19984;-59
2022/04/29 11:51:18;;;;;;;;;;;;;;;19.06;47.63;98716.75;5058974;28;19925;-60
2022/04/29 11:53:57;;;;;;;;;;;;;;;19.18;47.19;98715.19;5079929;28;19924;-61
2022/04/29 11:56:23;;;;;;;;;;;;;;;19.24;47.25;98716.69;5078679;28;19928;-60
2022/04/29 11:58:51;;;;;;;;;;;;;;;19.00;48.38;98712.53;5076127;28;20033;-60
2022/04/29 12:01:19;;;;;;;;;;;;;;;19.10;48.84;98706.91;5076290;28;20385;-60
2022/04/29 12:03:47;;;;;;;;;;;;;;;19.25;48.53;98709.34;5079289;27;19950;-60
2022/04/29 12:06:13;;;;;;;;;;;;;;;18.96;49.64;98706.09;5079332;28;19928;-60
2022/04/29 12:08:40;;;;;;;;;;;;;;;19.21;47.78;98705.66;5075850;28;19925;-59
2022/04/29 12:11:08;;;;;;;;;;;;;;;19.27;47.69;98702.53;5075804;28;20020;-60
2022/04/29 12:13:34;;;;;;;;;;;;;;;19.20;49.29;98696.72;5101774;27;19935;-60
2022/04/29 12:16:02;;;;;;;;;;;;;;;19.36;50.10;98689.91;5076060;28;19925;-59
2022/04/29 12:18:42;;;;;;;;;;;;;;;19.14;51.16;98687.09;5076610;28;19929;-60
2022/04/29 12:21:09;;;;;;;;;;;;;;;19.48;46.73;98678.59;5079216;28;19929;-59
2022/04/29 12:23:36;;;;;;;;;;;;;;;19.23;48.67;98671.75;5076441;28;19925;-59
2022/04/29 12:26:03;;;;;;;;;;;;;;;19.13;50.01;98663.81;5075803;28;19992;-59
2022/04/29 12:28:31;;;;;;;;;;;;;;;19.23;49.96;98668.22;5077483;28;19946;-60
2022/04/29 12:36:31;;;;;;;;;;;;;;;19.30;48.25;98658.63;5077135;28;19936;-60
2022/04/29 12:39:04;;;;;;;;;;;;;;;19.67;46.95;98659.50;5078771;28;19925;-62
2022/04/29 12:41:30;;;;;;;;;;;;;;;19.80;47.45;98650.56;5076922;28;19935;-59
2022/04/29 12:44:07;;;;;;;;;;;;;;;19.81;46.57;98644.81;5072811;27;19931;-61
2022/04/29 12:46:34;;;;;;;;;;;;;;;19.73;46.84;98645.53;5076330;28;19987;-60
2022/04/29 12:49:00;;;;;;;;;;;;;;;19.83;46.34;98639.91;5075760;28;19993;-62
2022/04/29 12:51:28;;;;;;;;;;;;;;;19.86;46.36;98641.19;5076350;28;19924;-60
2022/04/29 12:53:55;;;;;;;;;;;;;;;19.84;46.34;98632.56;5079050;28;20019;-60
2022/04/29 12:56:28;;;;;;;;;;;;;;;19.81;47.03;98638.59;5078402;27;19924;-60
2022/04/29 12:58:55;;;;;;;;;;;;;;;20.00;45.20;98636.53;5070530;28;19966;-60
2022/04/29 13:01:23;;;;;;;;;;;;;;;20.16;45.66;98636.97;5077800;28;19925;-61
2022/04/29 13:03:53;;;;;;;;;;;;;;;19.96;45.81;98630.09;5075059;28;19979;-60
2022/04/29 13:06:20;;;;;;;;;;;;;;;19.72;46.83;98632.28;5075564;28;19991;-61
2022/04/29 13:08:48;;;;;;;;;;;;;;;19.69;48.29;98625.56;5078331;28;19932;-60
2022/04/29 13:11:15;;;;;;;;;;;;;;;20.04;46.36;98618.53;5078630;28;19931;-60
2022/04/29 13:13:41;;;;;;;;;;;;;;;20.06;45.90;98616.31;5097237;27;19921;-60
2022/04/29 13:16:08;;;;;;;;;;;;;;;20.02;46.56;98617.25;5074953;28;19964;-59
2022/04/29 13:18:35;;;;;;;;;;;;;;;19.89;47.24;98605.34;5077185;28;19950;-60
2022/04/29 13:21:06;;;;;;;;;;;;;;;20.04;46.86;98607.69;5078440;28;19946;-60
2022/04/29 13:23:32;;;;;;;;;;;;;;;20.35;45.25;98608.59;5075865;28;19946;-60
2022/04/29 13:25:59;;;;;;;;;;;;;;;20.22;47.23;98601.28;5075040;28;19925;-60